createdAt,value
2018-11-04T00:00:25.913Z,54.33
2018-11-04T00:02:53.704Z,54.78
2018-11-04T00:05:21.308Z,54.65
2018-11-04T00:07:50.105Z,54.89
2018-11-04T00:10:17.850Z,55.22
2018-11-04T00:12:45.477Z,54.98
2018-11-04T00:15:13.118Z,54.81
2018-11-04T00:17:41.151Z,54.22
2018-11-04T00:20:10.485Z,55.02
2018-11-04T00:22:38.120Z,54.96
2018-11-04T00:25:06.132Z,54.97
2018-11-04T00:27:33.773Z,55.05
2018-11-04T00:30:01.556Z,54.52
2018-11-04T00:32:29.152Z,55.28
2018-11-04T00:34:56.769Z,54.95
2018-11-04T00:37:24.390Z,54.23
2018-11-04T00:39:52.020Z,54.86
2018-11-04T00:42:19.665Z,54.14
2018-11-04T00:44:47.299Z,54.93
2018-11-04T00:47:14.952Z,54.58
2018-11-04T00:49:42.598Z,54.31
2018-11-04T00:52:10.217Z,54.34
2018-11-04T00:54:37.861Z,54.30
2018-11-04T00:57:05.500Z,54.41
2018-11-04T00:59:33.123Z,54.05
2018-11-04T01:02:00.754Z,53.99
2018-11-04T01:04:28.429Z,54.72
2018-11-04T01:06:56.148Z,54.07
2018-11-04T01:09:23.761Z,54.44
2018-11-04T01:11:51.396Z,54.46
2018-11-04T01:14:19.051Z,54.67
2018-11-04T01:16:46.696Z,54.72
2018-11-04T01:19:14.884Z,54.10
2018-11-04T01:21:42.526Z,54.47
2018-11-04T01:24:10.245Z,54.97
2018-11-04T01:26:37.833Z,54.17
2018-11-04T01:29:05.821Z,54.39
2018-11-04T01:31:33.457Z,54.32
2018-11-04T01:34:01.086Z,54.92
2018-11-04T01:36:28.716Z,54.90
2018-11-04T01:38:56.395Z,54.43
2018-11-04T01:41:24.016Z,54.86
2018-11-04T01:43:51.633Z,54.13
2018-11-04T01:46:19.262Z,54.66
2018-11-04T01:48:46.894Z,54.75
2018-11-04T01:51:14.517Z,54.85
2018-11-04T01:53:42.150Z,54.88
2018-11-04T01:56:09.773Z,54.30
2018-11-04T01:58:37.440Z,54.12
2018-11-04T02:01:05.062Z,54.18
2018-11-04T02:03:32.681Z,54.68
2018-11-04T02:06:00.289Z,54.70
2018-11-04T02:08:27.913Z,54.09
2018-11-04T02:10:55.547Z,54.64
2018-11-04T02:13:23.176Z,53.97
2018-11-04T02:15:50.822Z,54.05
2018-11-04T02:18:18.444Z,54.43
2018-11-04T02:20:46.082Z,54.04
2018-11-04T02:23:13.728Z,54.13
2018-11-04T02:25:41.341Z,54.10
2018-11-04T02:28:08.965Z,54.93
2018-11-04T02:30:36.586Z,54.37
2018-11-04T02:33:04.217Z,54.92
2018-11-04T02:35:31.838Z,54.74
2018-11-04T02:37:59.535Z,54.09
2018-11-04T02:40:27.202Z,54.29
2018-11-04T02:42:54.833Z,54.82
2018-11-04T02:45:22.466Z,54.44
2018-11-04T02:47:50.099Z,54.82
2018-11-04T02:50:17.753Z,54.58
2018-11-04T02:52:45.378Z,54.65
2018-11-04T02:55:13.007Z,54.74
2018-11-04T02:57:40.664Z,54.83
2018-11-04T03:00:09.203Z,54.78
2018-11-04T03:02:36.840Z,54.74
2018-11-04T03:05:04.734Z,54.13
2018-11-04T03:07:32.361Z,54.62
2018-11-04T03:09:59.985Z,54.00
2018-11-04T03:12:27.596Z,53.86
2018-11-04T03:14:55.242Z,54.28
2018-11-04T03:17:22.863Z,54.24
2018-11-04T03:19:50.464Z,54.04
2018-11-04T03:22:18.106Z,53.87
2018-11-04T03:24:45.798Z,54.47
2018-11-04T03:27:13.406Z,54.38
2018-11-04T03:29:41.021Z,53.71
2018-11-04T03:32:08.662Z,54.18
2018-11-04T03:34:36.293Z,54.32
2018-11-04T03:37:03.909Z,54.04
2018-11-04T03:39:31.557Z,53.49
2018-11-04T03:41:59.194Z,54.16
2018-11-04T03:44:26.816Z,53.91
2018-11-04T03:46:54.449Z,53.91
2018-11-04T03:49:22.081Z,53.47
2018-11-04T03:51:49.724Z,54.32
2018-11-04T03:54:17.337Z,53.72
2018-11-04T03:56:45.004Z,53.88
2018-11-04T03:59:12.633Z,54.33
2018-11-04T04:01:40.266Z,54.19
2018-11-04T04:04:07.889Z,53.61
2018-11-04T04:06:35.510Z,54.27
2018-11-04T04:09:04.634Z,53.92
2018-11-04T04:11:32.253Z,54.35
2018-11-04T04:13:59.882Z,54.15
2018-11-04T04:16:27.534Z,54.24
2018-11-04T04:18:55.162Z,53.54
2018-11-04T04:21:22.797Z,53.72
2018-11-04T04:23:50.433Z,54.02
2018-11-04T04:26:18.048Z,53.46
2018-11-04T04:28:45.674Z,53.82
2018-11-04T04:31:13.334Z,54.17
2018-11-04T04:33:40.950Z,53.33
2018-11-04T04:36:08.590Z,53.49
2018-11-04T04:38:36.204Z,54.13
2018-11-04T04:41:03.824Z,53.77
2018-11-04T04:43:31.470Z,53.42
2018-11-04T04:45:59.100Z,53.78
2018-11-04T04:48:26.772Z,53.06
2018-11-04T04:50:54.385Z,53.53
2018-11-04T04:53:25.270Z,53.72
2018-11-04T04:55:53.740Z,53.60
2018-11-04T04:58:21.606Z,53.27
2018-11-04T05:00:49.250Z,54.00
2018-11-04T05:03:16.878Z,53.90
2018-11-04T05:05:44.590Z,52.99
2018-11-04T05:08:12.215Z,53.08
2018-11-04T05:10:39.842Z,53.60
2018-11-04T05:13:07.470Z,53.46
2018-11-04T05:15:35.120Z,53.43
2018-11-04T05:18:02.773Z,53.49
2018-11-04T05:20:30.397Z,54.01
2018-11-04T05:22:58.021Z,53.41
2018-11-04T05:25:25.666Z,53.45
2018-11-04T05:27:53.281Z,53.46
2018-11-04T05:30:20.904Z,53.24
2018-11-04T05:32:48.546Z,53.33
2018-11-04T05:35:16.189Z,53.50
2018-11-04T05:37:43.821Z,53.09
2018-11-04T05:40:11.461Z,54.04
2018-11-04T05:42:39.108Z,53.75
2018-11-04T05:45:06.980Z,53.90
2018-11-04T05:47:34.605Z,53.60
2018-11-04T05:50:02.246Z,53.95
2018-11-04T05:52:30.014Z,53.75
2018-11-04T05:54:57.645Z,54.01
2018-11-04T05:57:25.260Z,53.79
2018-11-04T05:59:52.921Z,53.61
2018-11-04T06:02:20.543Z,54.02
2018-11-04T06:04:48.198Z,53.78
2018-11-04T06:07:16.045Z,54.14
2018-11-04T06:09:43.681Z,53.39
2018-11-04T06:12:11.308Z,53.50
2018-11-04T06:14:38.981Z,53.76
2018-11-04T06:17:06.691Z,53.76
2018-11-04T06:19:34.433Z,54.14
2018-11-04T06:22:02.025Z,54.04
2018-11-04T06:24:29.649Z,53.86
2018-11-04T06:26:57.277Z,53.54
2018-11-04T06:29:24.900Z,53.25
2018-11-04T06:31:52.534Z,53.32
2018-11-04T06:34:20.208Z,53.51
2018-11-04T06:36:47.910Z,53.48
2018-11-04T06:39:15.548Z,54.16
2018-11-04T06:41:43.178Z,53.66
2018-11-04T06:44:10.808Z,54.24
2018-11-04T06:46:38.437Z,54.16
2018-11-04T06:49:06.076Z,54.05
2018-11-04T06:51:33.750Z,53.75
2018-11-04T06:54:01.365Z,53.34
2018-11-04T06:56:28.988Z,54.10
2018-11-04T06:58:56.632Z,53.34
2018-11-04T07:01:24.273Z,53.39
2018-11-04T07:03:57.777Z,53.66
2018-11-04T07:06:25.442Z,53.91
2018-11-04T07:08:53.088Z,53.09
2018-11-04T07:11:20.721Z,53.33
2018-11-04T07:13:48.357Z,53.57
2018-11-04T07:16:16.097Z,54.10
2018-11-04T07:18:43.741Z,54.10
2018-11-04T07:21:11.402Z,53.26
2018-11-04T07:23:39.045Z,53.52
2018-11-04T07:26:06.769Z,54.28
2018-11-04T07:28:34.398Z,54.35
2018-11-04T07:31:02.039Z,53.55
2018-11-04T07:33:29.701Z,53.94
2018-11-04T07:35:57.342Z,53.61
2018-11-04T07:38:24.982Z,54.13
2018-11-04T07:40:52.602Z,54.01
2018-11-04T07:43:20.235Z,54.34
2018-11-04T07:45:47.860Z,53.45
2018-11-04T07:48:15.494Z,53.77
2018-11-04T07:50:43.242Z,54.32
2018-11-04T07:53:10.793Z,53.55
2018-11-04T07:55:38.429Z,54.19
2018-11-04T07:58:06.056Z,53.49
2018-11-04T08:00:33.685Z,53.92
2018-11-04T08:03:01.320Z,54.34
2018-11-04T08:05:28.953Z,53.86
2018-11-04T08:07:56.605Z,54.11
2018-11-04T08:10:24.246Z,53.63
2018-11-04T08:12:51.876Z,54.04
2018-11-04T08:15:19.522Z,54.22
2018-11-04T08:17:47.169Z,54.39
2018-11-04T08:20:14.797Z,53.66
2018-11-04T08:22:42.421Z,54.30
2018-11-04T08:25:10.075Z,54.31
2018-11-04T08:27:37.773Z,53.61
2018-11-04T08:30:06.279Z,54.37
2018-11-04T08:32:33.938Z,54.31
2018-11-04T08:35:01.598Z,53.99
2018-11-04T08:37:29.224Z,53.83
2018-11-04T08:39:56.903Z,53.87
2018-11-04T08:42:24.533Z,53.95
2018-11-04T08:44:52.165Z,53.85
2018-11-04T08:47:19.812Z,53.56
2018-11-04T08:49:47.441Z,54.10
2018-11-04T08:52:15.149Z,54.20
2018-11-04T08:54:42.796Z,53.76
2018-11-04T08:57:10.443Z,53.48
2018-11-04T08:59:38.100Z,53.74
2018-11-04T09:02:05.798Z,53.65
2018-11-04T09:04:33.435Z,53.88
2018-11-04T09:07:01.056Z,54.27
2018-11-04T09:09:28.720Z,54.56
2018-11-04T09:11:56.370Z,54.00
2018-11-04T09:14:24.078Z,54.41
2018-11-04T09:16:51.648Z,53.61
2018-11-04T09:19:19.286Z,53.83
2018-11-04T09:21:46.999Z,54.21
2018-11-04T09:24:14.593Z,53.94
2018-11-04T09:26:42.242Z,54.44
2018-11-04T09:29:09.915Z,54.24
2018-11-04T09:31:37.536Z,54.29
2018-11-04T09:34:05.398Z,53.76
2018-11-04T09:36:33.097Z,53.75
2018-11-04T09:39:00.710Z,54.51
2018-11-04T09:41:28.340Z,53.97
2018-11-04T09:43:55.965Z,54.22
2018-11-04T09:46:23.619Z,54.38
2018-11-04T09:48:51.289Z,53.88
2018-11-04T09:51:19.213Z,54.48
2018-11-04T09:53:46.857Z,54.39
2018-11-04T09:56:14.510Z,54.43
2018-11-04T09:58:42.141Z,54.41
2018-11-04T10:01:09.815Z,54.17
2018-11-04T10:03:37.445Z,54.26
2018-11-04T10:06:05.087Z,54.28
2018-11-04T10:08:32.721Z,54.38
2018-11-04T10:11:00.350Z,54.25
2018-11-04T10:13:28.105Z,54.47
2018-11-04T10:15:55.693Z,53.73
2018-11-04T10:18:23.325Z,54.26
2018-11-04T10:20:51.395Z,53.96
2018-11-04T10:23:18.664Z,54.24
2018-11-04T10:25:46.305Z,54.60
2018-11-04T10:28:13.947Z,53.99
2018-11-04T10:30:41.578Z,54.47
2018-11-04T10:33:09.229Z,54.24
2018-11-04T10:35:36.869Z,53.90
2018-11-04T10:38:04.509Z,53.83
2018-11-04T10:40:32.131Z,54.25
2018-11-04T10:42:59.805Z,53.67
2018-11-04T10:45:27.434Z,54.15
2018-11-04T10:47:55.066Z,53.87
2018-11-04T10:50:22.688Z,53.64
2018-11-04T10:55:38.728Z,53.68
2018-11-04T10:58:06.345Z,53.70
2018-11-04T11:00:39.510Z,54.39
2018-11-04T11:03:07.132Z,54.64
2018-11-04T11:05:34.750Z,53.55
2018-11-04T11:08:02.402Z,54.50
2018-11-04T11:10:30.048Z,53.98
2018-11-04T11:12:57.702Z,54.19
2018-11-04T11:15:25.324Z,54.54
2018-11-04T11:17:52.961Z,53.63
2018-11-04T11:20:20.601Z,54.52
2018-11-04T11:22:48.408Z,53.99
2018-11-04T11:25:15.872Z,54.71
2018-11-04T11:27:43.516Z,54.71
2018-11-04T11:30:11.234Z,54.29
2018-11-04T11:32:38.833Z,54.69
2018-11-04T11:35:06.933Z,54.30
2018-11-04T11:37:34.639Z,54.19
2018-11-04T11:40:02.236Z,54.56
2018-11-04T11:42:29.853Z,54.59
2018-11-04T11:44:57.597Z,54.34
2018-11-04T11:47:25.139Z,54.01
2018-11-04T11:49:52.754Z,54.58
2018-11-04T11:52:20.403Z,54.06
2018-11-04T11:54:48.043Z,54.57
2018-11-04T11:57:15.661Z,54.57
2018-11-04T11:59:43.293Z,54.38
2018-11-04T12:02:10.915Z,53.93
2018-11-04T12:04:39.182Z,53.72
2018-11-04T12:07:06.828Z,53.68
2018-11-04T12:09:34.477Z,54.13
2018-11-04T12:12:02.117Z,53.97
2018-11-04T12:14:29.750Z,54.04
2018-11-04T12:16:57.379Z,54.38
2018-11-04T12:19:24.993Z,53.89
2018-11-04T12:21:52.622Z,53.81
2018-11-04T12:24:20.270Z,54.39
2018-11-04T12:26:47.906Z,54.56
2018-11-04T12:29:15.557Z,54.34
2018-11-04T12:31:43.191Z,54.29
2018-11-04T12:34:10.826Z,53.97
2018-11-04T12:36:38.454Z,54.07
2018-11-04T12:39:07.478Z,53.81
2018-11-04T12:41:35.129Z,54.25
2018-11-04T12:44:02.772Z,53.96
2018-11-04T12:46:30.393Z,54.47
2018-11-04T12:48:58.030Z,54.38
2018-11-04T12:51:25.669Z,53.70
2018-11-04T12:53:53.306Z,54.33
2018-11-04T12:56:20.924Z,54.30
2018-11-04T12:58:48.544Z,54.12
2018-11-04T13:01:16.171Z,54.29
2018-11-04T13:03:43.804Z,54.37
2018-11-04T13:06:11.421Z,54.13
2018-11-04T13:08:39.114Z,54.21
2018-11-04T13:11:06.737Z,54.11
2018-11-04T13:13:34.364Z,54.03
2018-11-04T13:16:02.070Z,53.91
2018-11-04T13:18:29.700Z,53.69
2018-11-04T13:20:57.369Z,54.37
2018-11-04T13:23:24.973Z,53.55
2018-11-04T13:25:52.593Z,53.98
2018-11-04T13:28:20.213Z,53.80
2018-11-04T13:30:47.869Z,53.98
2018-11-04T13:33:15.500Z,53.59
2018-11-04T13:35:43.135Z,53.71
2018-11-04T13:38:10.757Z,53.55
2018-11-04T13:40:38.387Z,53.42
2018-11-04T13:43:06.016Z,54.29
2018-11-04T13:45:33.650Z,53.57
2018-11-04T13:48:01.282Z,53.67
2018-11-04T13:50:28.947Z,53.80
2018-11-04T13:52:56.573Z,54.01
2018-11-04T13:55:24.205Z,53.73
2018-11-04T13:57:51.822Z,54.09
2018-11-04T14:00:19.459Z,54.25
2018-11-04T14:02:48.484Z,54.26
2018-11-04T14:05:16.152Z,53.75
2018-11-04T14:07:43.777Z,53.55
2018-11-04T14:10:12.966Z,54.50
2018-11-04T14:12:41.018Z,54.47
2018-11-04T14:15:08.654Z,54.17
2018-11-04T14:17:36.290Z,54.52
2018-11-04T14:20:04.198Z,54.52
2018-11-04T14:22:31.930Z,53.87
2018-11-04T14:24:59.596Z,53.81
2018-11-04T14:27:27.288Z,54.21
2018-11-04T14:29:54.914Z,54.28
2018-11-04T14:32:22.550Z,54.24
2018-11-04T14:34:50.207Z,53.68
2018-11-04T14:37:17.834Z,54.22
2018-11-04T14:39:45.461Z,54.06
2018-11-04T14:42:13.081Z,53.49
2018-11-04T14:44:40.713Z,53.76
2018-11-04T14:47:08.338Z,54.00
2018-11-04T14:49:35.962Z,54.26
2018-11-04T14:52:03.609Z,53.75
2018-11-04T14:54:31.237Z,54.27
2018-11-04T14:56:58.862Z,53.31
2018-11-04T14:59:26.489Z,54.16
2018-11-04T15:01:54.217Z,53.47
2018-11-04T15:04:21.796Z,54.27
2018-11-04T15:06:49.452Z,53.34
2018-11-04T15:09:17.121Z,54.21
2018-11-04T15:11:44.745Z,54.00
2018-11-04T15:14:12.403Z,53.78
2018-11-04T15:16:40.031Z,54.11
2018-11-04T15:19:07.767Z,54.07
2018-11-04T15:21:35.320Z,53.32
2018-11-04T15:24:02.978Z,53.30
2018-11-04T15:26:30.626Z,53.25
2018-11-04T15:28:58.462Z,53.29
2018-11-04T15:31:26.121Z,53.07
2018-11-04T15:33:53.768Z,53.05
2018-11-04T15:36:21.392Z,53.85
2018-11-04T15:38:49.008Z,53.84
2018-11-04T15:41:16.662Z,53.67
2018-11-04T15:43:44.410Z,53.93
2018-11-04T15:46:12.065Z,54.17
2018-11-04T15:48:39.757Z,53.63
2018-11-04T15:51:07.378Z,53.40
2018-11-04T15:53:35.004Z,54.14
2018-11-04T15:56:02.625Z,53.59
2018-11-04T15:58:30.249Z,53.65
2018-11-04T16:00:57.895Z,53.78
2018-11-04T16:03:25.532Z,53.55
2018-11-04T16:05:53.224Z,54.02
2018-11-04T16:08:20.801Z,54.21
2018-11-04T16:10:48.453Z,53.21
2018-11-04T16:13:16.118Z,53.43
2018-11-04T16:15:43.745Z,53.32
2018-11-04T16:18:11.553Z,53.37
2018-11-04T16:20:39.129Z,54.11
2018-11-04T16:23:06.790Z,54.01
2018-11-04T16:25:34.446Z,53.33
2018-11-04T16:28:02.069Z,53.83
2018-11-04T16:30:29.788Z,54.07
2018-11-04T16:32:57.400Z,53.41
2018-11-04T16:35:25.012Z,53.38
2018-11-04T16:37:52.708Z,53.60
2018-11-04T16:40:20.307Z,53.85
2018-11-04T16:42:47.965Z,53.88
2018-11-04T16:45:16.446Z,53.89
2018-11-04T16:47:44.102Z,53.69
2018-11-04T16:50:12.755Z,53.16
2018-11-04T16:52:40.803Z,53.77
2018-11-04T16:55:09.166Z,53.66
2018-11-04T16:57:36.805Z,53.72
2018-11-04T17:00:04.533Z,54.08
2018-11-04T17:02:32.148Z,53.29
2018-11-04T17:04:59.849Z,53.50
2018-11-04T17:07:27.475Z,54.00
2018-11-04T17:09:55.134Z,53.42
2018-11-04T17:12:22.785Z,54.04
2018-11-04T17:14:50.401Z,53.52
2018-11-04T17:17:18.029Z,54.26
2018-11-04T17:19:45.692Z,53.98
2018-11-04T17:22:13.317Z,54.21
2018-11-04T17:24:40.934Z,53.79
2018-11-04T17:27:08.605Z,53.59
2018-11-04T17:29:36.231Z,53.54
2018-11-04T17:32:03.933Z,53.70
2018-11-04T17:34:31.569Z,53.50
2018-11-04T17:36:59.202Z,53.73
2018-11-04T17:39:26.884Z,53.44
2018-11-04T17:41:54.497Z,54.18
2018-11-04T17:44:22.191Z,53.99
2018-11-04T17:46:49.863Z,54.21
2018-11-04T17:49:17.511Z,53.63
2018-11-04T17:51:45.129Z,54.34
2018-11-04T17:54:12.768Z,53.41
2018-11-04T17:56:40.445Z,54.25
2018-11-04T17:59:08.135Z,54.19
2018-11-04T18:01:35.831Z,54.44
2018-11-04T18:04:03.680Z,53.60
2018-11-04T18:06:31.356Z,54.09
2018-11-04T18:08:59.049Z,53.81
2018-11-04T18:11:26.706Z,54.38
2018-11-04T18:13:54.435Z,53.99
2018-11-04T18:16:22.308Z,54.55
2018-11-04T18:18:49.964Z,54.40
2018-11-04T18:21:17.649Z,54.15
2018-11-04T18:23:45.891Z,54.37
2018-11-04T18:26:13.863Z,53.60
2018-11-04T18:28:42.006Z,54.15
2018-11-04T18:31:09.728Z,54.15
2018-11-04T18:33:37.349Z,54.46
2018-11-04T18:36:05.173Z,54.97
2018-11-04T18:38:32.774Z,55.12
2018-11-04T18:41:00.501Z,55.19
2018-11-04T18:43:28.155Z,55.68
2018-11-04T18:45:55.820Z,55.94
2018-11-04T18:48:23.828Z,55.58
2018-11-04T18:50:51.483Z,55.66
2018-11-04T18:53:19.570Z,55.08
2018-11-04T18:55:47.213Z,55.78
2018-11-04T18:58:14.849Z,55.90
2018-11-04T19:00:42.483Z,56.78
2018-11-04T19:03:10.656Z,56.80
2018-11-04T19:05:38.425Z,56.53
2018-11-04T19:08:06.889Z,56.41
2018-11-04T19:10:34.562Z,55.55
2018-11-04T19:13:02.731Z,55.31
2018-11-04T19:15:30.912Z,56.06
2018-11-04T19:17:58.605Z,55.71
2018-11-04T19:20:26.246Z,55.68
2018-11-04T19:22:53.949Z,55.33
2018-11-04T19:25:21.585Z,56.26
2018-11-04T19:27:49.274Z,55.44
2018-11-04T19:30:17.897Z,55.81
2018-11-04T19:32:45.982Z,56.01
2018-11-04T19:35:14.333Z,55.27
2018-11-04T19:37:42.216Z,55.19
2018-11-04T19:40:10.806Z,55.43
2018-11-04T19:42:38.949Z,55.43
2018-11-04T19:45:06.654Z,55.08
2018-11-04T19:47:35.342Z,55.76
2018-11-04T19:50:03.165Z,55.62
2018-11-04T19:52:30.826Z,55.57
2018-11-04T19:54:58.561Z,55.73
2018-11-04T19:57:28.004Z,54.93
2018-11-04T19:59:56.004Z,55.35
2018-11-04T20:02:23.636Z,55.05
2018-11-04T20:04:51.268Z,54.67
2018-11-04T20:07:19.016Z,55.47
2018-11-04T20:09:46.662Z,54.63
2018-11-04T20:12:19.547Z,54.91
2018-11-04T20:14:47.650Z,55.28
2018-11-04T20:17:15.385Z,55.62
2018-11-04T20:19:48.325Z,55.03
2018-11-04T20:22:15.942Z,54.83
2018-11-04T20:24:48.998Z,55.10
2018-11-04T20:27:16.620Z,54.61
2018-11-04T20:29:44.278Z,54.71
2018-11-04T20:32:17.197Z,54.58
2018-11-04T20:34:44.844Z,54.62
2018-11-04T20:37:12.504Z,55.27
2018-11-04T20:39:45.434Z,54.48
2018-11-04T20:42:13.049Z,54.61
2018-11-04T20:44:44.738Z,54.55
2018-11-04T20:47:12.554Z,54.54
2018-11-04T20:50:43.409Z,55.26
2018-11-04T20:53:11.079Z,54.74
2018-11-04T20:55:44.084Z,55.03
2018-11-04T20:58:11.833Z,54.56
2018-11-04T21:00:39.395Z,55.18
2018-11-04T21:03:07.031Z,55.32
2018-11-04T21:05:34.653Z,54.95
2018-11-04T21:08:02.277Z,54.62
2018-11-04T21:10:29.934Z,54.60
2018-11-04T21:12:57.589Z,55.18
2018-11-04T21:15:25.247Z,54.94
2018-11-04T21:17:52.901Z,55.24
2018-11-04T21:20:20.537Z,55.87
2018-11-04T21:22:48.186Z,54.92
2018-11-04T21:25:15.857Z,55.64
2018-11-04T21:27:43.495Z,55.16
2018-11-04T21:30:12.372Z,54.97
2018-11-04T21:32:40.012Z,55.21
2018-11-04T21:35:08.023Z,54.96
2018-11-04T21:37:35.806Z,55.79
2018-11-04T21:40:03.567Z,54.86
2018-11-04T21:42:31.286Z,54.89
2018-11-04T21:44:58.977Z,55.87
2018-11-04T21:47:26.622Z,55.94
2018-11-04T21:49:54.305Z,55.58
2018-11-04T21:52:21.978Z,55.42
2018-11-04T21:54:49.601Z,56.02
2018-11-04T21:57:17.208Z,55.25
2018-11-04T21:59:44.837Z,55.86
2018-11-04T22:02:12.680Z,55.46
2018-11-04T22:04:40.437Z,55.87
2018-11-04T22:07:08.048Z,55.90
2018-11-04T22:09:35.669Z,55.26
2018-11-04T22:14:04.091Z,55.91
2018-11-04T22:16:31.571Z,55.86
2018-11-04T22:18:59.851Z,55.95
2018-11-04T22:21:27.625Z,55.32
2018-11-04T22:23:55.324Z,55.82
2018-11-04T22:26:23.010Z,55.51
2018-11-04T22:28:50.711Z,55.81
2018-11-04T22:31:18.417Z,54.94
2018-11-04T22:33:46.199Z,55.39
2018-11-04T22:36:13.936Z,55.45
2018-11-04T22:38:41.832Z,55.66
2018-11-04T22:41:09.524Z,54.92
2018-11-04T22:43:37.279Z,55.22
2018-11-04T22:46:05.157Z,55.63
2018-11-04T22:48:32.830Z,55.63
2018-11-04T22:51:00.519Z,55.36
2018-11-04T22:53:45.419Z,55.66
2018-11-04T22:56:13.124Z,55.00
2018-11-04T22:58:40.786Z,55.65
2018-11-04T23:01:08.421Z,55.26
2018-11-04T23:03:36.093Z,55.08
2018-11-04T23:06:05.784Z,55.28
2018-11-04T23:08:33.418Z,55.66
2018-11-04T23:11:01.037Z,54.88
2018-11-04T23:13:28.709Z,54.81
2018-11-04T23:15:56.354Z,55.26
2018-11-04T23:18:24.033Z,55.09
2018-11-04T23:20:51.651Z,55.57
2018-11-04T23:23:19.294Z,54.89
2018-11-04T23:25:46.940Z,55.58
2018-11-04T23:28:14.605Z,54.74
2018-11-04T23:30:42.226Z,55.55
2018-11-04T23:33:09.872Z,55.18
2018-11-04T23:35:37.501Z,54.98
2018-11-04T23:38:05.180Z,55.30
2018-11-04T23:40:32.841Z,55.38
2018-11-04T23:43:00.466Z,54.90
2018-11-04T23:45:28.091Z,55.33
2018-11-04T23:47:55.718Z,54.94
2018-11-04T23:50:23.393Z,55.11
2018-11-04T23:52:51.025Z,55.61
2018-11-04T23:55:18.666Z,54.77
2018-11-04T23:57:46.298Z,55.18
